createdAt,value
2022-12-01T00:01:15.313Z,23.42
2022-12-01T00:03:42.176Z,24.75
2022-12-01T00:06:18.065Z,27.27
2022-12-01T00:09:06.183Z,23.75
2022-12-01T00:11:34.882Z,26.13
2022-12-01T00:14:02.108Z,28.02
2022-12-01T00:16:29.450Z,22.35
2022-12-01T00:18:56.546Z,25.42
2022-12-01T00:21:25.051Z,27.50
2022-12-01T00:23:55.146Z,26.50
2022-12-01T00:26:22.676Z,25.33
2022-12-01T00:28:54.556Z,26.02
2022-12-01T00:31:22.516Z,27.08
2022-12-01T00:33:49.640Z,26.60
2022-12-01T00:36:16.596Z,23.58
2022-12-01T00:38:43.504Z,26.25
2022-12-01T00:41:10.438Z,22.95
2022-12-01T00:43:37.392Z,25.52
2022-12-01T00:46:04.438Z,23.17
2022-12-01T00:48:31.572Z,23.08
2022-12-01T00:50:58.475Z,25.92
2022-12-01T00:53:25.460Z,23.13
2022-12-01T00:55:54.222Z,23.25
2022-12-01T00:58:22.362Z,26.13
2022-12-01T01:00:49.790Z,25.52
2022-12-01T01:03:17.008Z,21.08
2022-12-01T01:05:44.393Z,24.60
2022-12-01T01:08:13.568Z,21.23
2022-12-01T01:10:41.586Z,22.13
2022-12-01T01:13:09.120Z,23.90
2022-12-01T01:15:36.179Z,22.92
2022-12-01T01:18:03.573Z,24.45
2022-12-01T01:20:30.474Z,21.58
2022-12-01T01:22:57.610Z,26.88
2022-12-01T01:25:24.796Z,27.25
2022-12-01T01:27:52.037Z,23.60
2022-12-01T01:30:19.244Z,27.45
2022-12-01T01:32:46.231Z,23.73
2022-12-01T01:35:13.409Z,23.58
2022-12-01T01:37:40.374Z,21.98
2022-12-01T01:40:07.783Z,23.17
2022-12-01T01:42:34.757Z,23.20
2022-12-01T01:45:01.629Z,24.02
2022-12-01T01:47:36.618Z,23.55
2022-12-01T01:50:09.328Z,22.98
2022-12-01T01:52:43.943Z,24.17
2022-12-01T01:55:12.399Z,25.52
2022-12-01T01:57:39.978Z,22.85
2022-12-01T02:00:19.118Z,24.52
2022-12-01T02:02:47.368Z,23.38
2022-12-01T02:05:24.016Z,24.40
2022-12-01T02:07:53.743Z,21.90
2022-12-01T02:10:23.981Z,24.95
2022-12-01T02:13:04.159Z,26.95
2022-12-01T02:16:01.415Z,26.55
2022-12-01T02:21:36.352Z,21.83
2022-12-01T02:24:24.108Z,23.88
2022-12-01T02:27:01.634Z,27.13
2022-12-01T02:29:34.435Z,26.17
2022-12-01T02:32:07.135Z,24.20
2022-12-01T02:34:56.820Z,23.27
2022-12-01T02:37:34.440Z,21.20
2022-12-01T02:40:14.473Z,24.85
2022-12-01T02:43:05.574Z,23.40
2022-12-01T02:45:49.098Z,23.25
2022-12-01T02:48:29.738Z,22.98
2022-12-01T02:51:01.355Z,25.00
2022-12-01T02:53:28.522Z,22.58
2022-12-01T02:55:58.110Z,23.67
2022-12-01T02:58:25.128Z,26.40
2022-12-01T03:01:23.089Z,25.25
2022-12-01T03:04:21.362Z,24.88
2022-12-01T03:07:15.641Z,24.98
2022-12-01T03:10:13.657Z,22.67
2022-12-01T03:13:07.931Z,25.50
2022-12-01T03:15:49.058Z,25.67
2022-12-01T03:18:24.755Z,24.70
2022-12-01T03:21:11.145Z,24.65
2022-12-01T03:23:45.706Z,23.65
2022-12-01T03:26:17.488Z,27.58
2022-12-01T03:28:49.922Z,22.65
2022-12-01T03:31:20.998Z,21.63
2022-12-01T03:33:54.884Z,26.20
2022-12-01T03:36:33.676Z,25.73
2022-12-01T03:39:04.875Z,27.38
2022-12-01T03:41:45.634Z,29.63
2022-12-01T03:44:21.120Z,28.00
2022-12-01T03:46:50.285Z,25.27
2022-12-01T03:49:19.368Z,24.50
2022-12-01T03:52:04.587Z,28.30
2022-12-01T03:54:55.577Z,29.67
2022-12-01T03:57:31.771Z,26.73
2022-12-01T03:59:58.760Z,30.92
2022-12-01T04:02:28.562Z,30.63
2022-12-01T04:04:55.586Z,35.35
2022-12-01T04:07:23.614Z,32.60
2022-12-01T04:09:50.878Z,36.85
2022-12-01T04:12:29.929Z,26.38
2022-12-01T04:15:02.336Z,31.00
2022-12-01T04:17:29.660Z,30.08
2022-12-01T04:19:56.733Z,25.17
2022-12-01T04:22:24.363Z,26.45
2022-12-01T04:24:51.520Z,28.25
2022-12-01T04:27:18.793Z,28.05
2022-12-01T04:29:45.863Z,30.60
2022-12-01T04:32:13.885Z,26.67
2022-12-01T04:34:41.580Z,22.17
2022-12-01T04:37:10.234Z,28.17
2022-12-01T04:39:37.272Z,26.73
2022-12-01T04:42:05.210Z,26.45
2022-12-01T04:44:34.955Z,29.15
2022-12-01T04:47:04.009Z,27.75
2022-12-01T04:49:31.510Z,27.90
2022-12-01T04:51:58.669Z,34.80
2022-12-01T04:54:27.152Z,30.88
2022-12-01T04:56:54.113Z,29.65
2022-12-01T04:59:21.108Z,31.63
2022-12-01T05:01:48.566Z,26.52
2022-12-01T05:04:16.048Z,31.38
2022-12-01T05:06:43.476Z,30.15
2022-12-01T05:09:17.413Z,30.67
2022-12-01T05:11:44.987Z,29.98
2022-12-01T05:14:11.951Z,32.35
2022-12-01T05:16:39.330Z,35.10
2022-12-01T05:19:29.026Z,30.88
2022-12-01T05:21:56.515Z,31.35
2022-12-01T05:24:23.815Z,29.65
2022-12-01T05:26:50.787Z,31.65
2022-12-01T05:29:18.096Z,31.05
2022-12-01T05:31:46.334Z,35.17
2022-12-01T05:34:34.984Z,36.35
2022-12-01T05:37:02.050Z,32.88
2022-12-01T05:39:29.107Z,29.33
2022-12-01T05:41:56.292Z,31.02
2022-12-01T05:44:26.258Z,29.88
2022-12-01T05:46:53.298Z,36.63
2022-12-01T05:49:24.279Z,29.52
2022-12-01T05:54:41.711Z,25.30
2022-12-01T05:58:08.138Z,29.75
2022-12-01T06:04:42.066Z,30.70
2022-12-01T06:13:17.913Z,30.45
2022-12-01T06:15:47.408Z,32.17
2022-12-01T06:18:17.402Z,29.55
2022-12-01T06:20:47.401Z,30.15
2022-12-01T06:23:14.534Z,32.72
2022-12-01T06:25:42.411Z,35.17
2022-12-01T06:28:09.785Z,31.67
2022-12-01T06:30:37.463Z,31.73
2022-12-01T06:33:15.460Z,27.17
2022-12-01T06:35:46.211Z,35.20
2022-12-01T06:38:13.723Z,33.22
2022-12-01T06:40:42.632Z,23.13
2022-12-01T06:43:10.473Z,27.35
2022-12-01T06:45:38.008Z,25.70
2022-12-01T06:48:07.048Z,22.05
2022-12-01T06:50:36.793Z,25.60
2022-12-01T07:02:58.621Z,31.83
2022-12-01T07:05:34.649Z,30.42
2022-12-01T07:08:23.983Z,34.03
2022-12-01T07:11:29.235Z,29.15
2022-12-01T07:14:34.192Z,32.00
2022-12-01T07:17:15.706Z,28.25
2022-12-01T07:19:52.011Z,29.95
2022-12-01T07:25:07.373Z,40.08
2022-12-01T07:28:03.451Z,37.00
2022-12-01T07:30:50.130Z,38.35
2022-12-01T07:36:11.355Z,33.08
2022-12-01T07:39:10.866Z,28.55
2022-12-01T07:45:21.160Z,31.48
2022-12-01T07:47:53.445Z,32.20
2022-12-01T07:50:32.067Z,29.33
2022-12-01T08:06:47.971Z,21.92
2022-12-01T08:09:21.998Z,27.90
2022-12-01T08:16:18.317Z,23.35
2022-12-01T08:26:17.637Z,23.42
2022-12-01T08:28:48.465Z,25.95
2022-12-01T08:31:24.709Z,21.98
2022-12-01T08:36:45.050Z,28.40
2022-12-01T08:39:17.111Z,31.48
2022-12-01T08:41:52.802Z,21.92
2022-12-01T08:44:44.173Z,25.58
2022-12-01T08:47:18.938Z,23.48
2022-12-01T08:53:30.221Z,25.73
2022-12-01T08:57:00.026Z,24.08
2022-12-01T09:02:27.433Z,19.45
2022-12-01T09:04:57.963Z,20.58
2022-12-01T09:08:27.581Z,17.20
2022-12-01T09:14:31.808Z,19.00
2022-12-01T09:20:33.509Z,24.75
2022-12-01T09:23:51.426Z,17.73
2022-12-01T09:27:10.975Z,23.30
2022-12-01T09:29:57.187Z,17.30
2022-12-01T09:32:42.173Z,20.17
2022-12-01T09:35:30.552Z,24.02
2022-12-01T09:39:04.893Z,23.50
2022-12-01T09:41:57.368Z,36.45
2022-12-01T09:45:20.666Z,22.42
2022-12-01T09:48:02.704Z,26.35
2022-12-01T09:56:59.829Z,21.45
2022-12-01T10:00:04.844Z,24.33
2022-12-01T10:02:45.835Z,19.20
2022-12-01T10:05:18.638Z,24.05
2022-12-01T10:07:58.300Z,18.77
2022-12-01T10:11:15.390Z,21.67
2022-12-01T10:13:45.617Z,18.33
2022-12-01T10:16:30.613Z,23.13
2022-12-01T10:19:25.992Z,18.67
2022-12-01T10:22:37.105Z,18.52
2022-12-01T10:25:58.773Z,23.10
2022-12-01T10:28:55.164Z,19.20
2022-12-01T10:35:16.077Z,21.13
2022-12-01T10:37:55.200Z,22.08
2022-12-01T10:40:40.364Z,21.90
2022-12-01T10:57:02.973Z,20.40
2022-12-01T10:59:49.623Z,26.08
2022-12-01T11:03:09.749Z,23.73
2022-12-01T11:05:54.075Z,19.42
2022-12-01T11:12:52.806Z,20.42
2022-12-01T11:23:24.102Z,21.58
2022-12-01T11:52:59.087Z,23.75
2022-12-01T11:59:38.271Z,21.17
2022-12-01T12:02:32.534Z,22.73
2022-12-01T12:05:09.503Z,20.58
2022-12-01T12:08:11.574Z,21.00
2022-12-01T12:10:54.292Z,21.80
2022-12-01T12:13:48.156Z,21.15
2022-12-01T12:16:50.865Z,21.15
2022-12-01T12:19:34.067Z,21.58
2022-12-01T12:22:35.777Z,22.77
2022-12-01T12:25:44.206Z,22.73
2022-12-01T12:28:39.021Z,27.55
2022-12-01T12:32:18.513Z,24.15
2022-12-01T12:34:57.530Z,25.85
2022-12-01T12:38:01.524Z,20.77
2022-12-01T12:41:07.091Z,22.65
2022-12-01T12:43:57.347Z,21.75
2022-12-01T12:47:08.884Z,23.58
2022-12-01T12:49:50.781Z,23.08
2022-12-01T12:52:53.756Z,23.08
2022-12-01T12:55:33.527Z,20.90
2022-12-01T12:58:33.569Z,25.92
2022-12-01T13:01:46.404Z,20.30
2022-12-01T13:04:33.332Z,22.48
2022-12-01T13:07:25.786Z,21.13
2022-12-01T13:10:41.141Z,26.45
2022-12-01T13:13:23.289Z,25.00
2022-12-01T13:15:54.806Z,27.75
2022-12-01T13:18:49.066Z,19.45
2022-12-01T13:21:20.584Z,20.23
2022-12-01T13:23:50.184Z,20.15
2022-12-01T13:26:25.073Z,21.15
2022-12-01T13:28:58.427Z,21.23
2022-12-01T13:31:25.802Z,22.38
2022-12-01T13:34:01.922Z,22.83
2022-12-01T13:36:46.331Z,27.38
2022-12-01T13:39:36.531Z,21.95
2022-12-01T13:42:08.320Z,21.02
2022-12-01T13:44:42.281Z,23.42
2022-12-01T13:47:15.068Z,16.30
2022-12-01T13:49:50.828Z,25.52
2022-12-01T13:52:29.056Z,19.52
2022-12-01T13:55:04.490Z,20.48
2022-12-01T13:57:38.809Z,19.55
2022-12-01T14:00:24.591Z,20.27
2022-12-01T14:03:13.765Z,19.13
2022-12-01T14:05:40.792Z,17.98
2022-12-01T14:08:28.790Z,20.42
2022-12-01T14:11:23.806Z,15.73
2022-12-01T14:14:00.999Z,18.88
2022-12-01T14:17:04.056Z,21.17
2022-12-01T14:19:37.841Z,23.27
2022-12-01T14:22:08.342Z,23.67
2022-12-01T14:24:39.050Z,18.98
2022-12-01T14:27:07.981Z,18.60
2022-12-01T14:29:43.821Z,16.90
2022-12-01T14:32:16.973Z,17.67
2022-12-01T14:34:45.418Z,20.40
2022-12-01T14:37:20.379Z,21.58
2022-12-01T14:39:57.367Z,20.45
2022-12-01T14:42:42.792Z,26.75
2022-12-01T14:45:15.351Z,42.47
2022-12-01T14:47:52.844Z,26.27
2022-12-01T14:50:32.315Z,19.48
2022-12-01T14:53:24.742Z,20.67
2022-12-01T14:56:11.589Z,17.92
2022-12-01T15:01:10.085Z,21.60
2022-12-01T15:03:45.488Z,20.10
2022-12-01T15:06:23.930Z,21.17
2022-12-01T15:14:49.999Z,20.42
2022-12-01T15:17:37.134Z,20.35
2022-12-01T15:20:25.343Z,20.73
2022-12-01T15:22:53.407Z,25.50
2022-12-01T15:25:20.889Z,20.13
2022-12-01T15:28:13.538Z,18.23
2022-12-01T15:30:42.901Z,21.55
2022-12-01T15:33:36.978Z,19.95
2022-12-01T15:36:07.019Z,23.63
2022-12-01T15:38:38.931Z,22.02
2022-12-01T15:44:05.526Z,21.17
2022-12-01T15:46:37.253Z,23.58
2022-12-01T15:49:30.172Z,24.50
2022-12-01T15:52:09.881Z,20.77
2022-12-01T15:54:38.059Z,21.85
2022-12-01T15:57:06.968Z,20.17
2022-12-01T15:59:42.142Z,19.30
2022-12-01T16:02:32.110Z,24.02
2022-12-01T16:05:04.721Z,18.63
2022-12-01T16:08:11.065Z,23.58
2022-12-01T16:10:36.868Z,21.77
2022-12-01T16:13:42.251Z,22.35
2022-12-01T16:16:41.961Z,21.05
2022-12-01T16:19:13.264Z,22.45
2022-12-01T16:22:11.754Z,25.17
2022-12-01T16:24:54.816Z,24.13
2022-12-01T16:27:27.496Z,25.70
2022-12-01T16:30:02.074Z,23.95
2022-12-01T16:32:40.859Z,24.80
2022-12-01T16:35:21.247Z,27.10
2022-12-01T16:37:49.271Z,25.30
2022-12-01T16:40:20.617Z,27.52
2022-12-01T16:42:51.501Z,19.90
2022-12-01T16:45:20.295Z,22.15
2022-12-01T16:47:49.884Z,21.65
2022-12-01T16:50:20.789Z,23.95
2022-12-01T16:52:48.108Z,25.63
2022-12-01T16:55:27.837Z,21.10
2022-12-01T16:57:55.929Z,25.42
2022-12-01T17:00:26.269Z,23.33
2022-12-01T17:02:54.434Z,21.05
2022-12-01T17:05:24.832Z,20.23
2022-12-01T17:07:53.279Z,23.23
2022-12-01T17:10:21.658Z,23.63
2022-12-01T17:12:49.581Z,22.67
2022-12-01T17:15:18.462Z,20.73
2022-12-01T17:17:45.882Z,24.70
2022-12-01T17:20:13.987Z,25.65
2022-12-01T17:22:44.772Z,27.23
2022-12-01T17:25:13.404Z,24.77
2022-12-01T17:27:42.089Z,22.70
2022-12-01T17:30:12.607Z,28.48
2022-12-01T17:32:40.307Z,22.90
2022-12-01T17:35:12.392Z,23.85
2022-12-01T17:37:40.732Z,26.83
2022-12-01T17:40:11.576Z,24.00
2022-12-01T17:42:39.384Z,23.17
2022-12-01T17:45:19.333Z,25.70
2022-12-01T17:47:49.401Z,24.52
2022-12-01T17:50:21.154Z,27.08
2022-12-01T18:04:22.115Z,28.38
2022-12-01T18:15:05.063Z,25.60
2022-12-01T18:20:32.437Z,26.40
2022-12-01T18:25:51.892Z,26.55
2022-12-01T18:28:29.396Z,27.17
2022-12-01T18:31:12.658Z,25.10
2022-12-01T18:33:44.562Z,23.80
2022-12-01T18:36:26.144Z,32.28
2022-12-01T18:39:11.843Z,26.10
2022-12-01T18:41:52.593Z,25.70
2022-12-01T18:44:20.325Z,22.60
2022-12-01T18:47:00.196Z,29.88
2022-12-01T18:49:37.389Z,33.42
2022-12-01T18:52:16.261Z,30.15
2022-12-01T18:54:54.451Z,28.40
2022-12-01T19:00:18.526Z,27.50
2022-12-01T19:05:38.627Z,28.05
2022-12-01T19:08:08.927Z,33.13
2022-12-01T19:10:46.226Z,30.42
2022-12-01T19:13:18.614Z,29.92
2022-12-01T19:15:50.421Z,35.63
2022-12-01T19:18:22.427Z,32.47
2022-12-01T19:20:51.625Z,27.70
2022-12-01T19:23:22.062Z,32.97
2022-12-01T19:36:40.873Z,27.35
2022-12-01T19:39:22.762Z,25.05
2022-12-01T19:42:03.168Z,28.67
2022-12-01T19:47:14.685Z,27.67
2022-12-01T19:49:47.899Z,29.05
2022-12-01T19:52:19.907Z,30.65
2022-12-01T19:54:49.739Z,31.50
2022-12-01T19:57:21.684Z,30.63
2022-12-01T19:59:51.009Z,34.25
2022-12-01T20:02:28.940Z,28.40
2022-12-01T20:05:04.341Z,29.55
2022-12-01T20:07:35.739Z,28.35
2022-12-01T20:10:03.095Z,29.13
2022-12-01T20:12:30.489Z,30.38
2022-12-01T20:15:06.978Z,30.05
2022-12-01T20:17:40.152Z,33.25
2022-12-01T20:20:10.695Z,29.45
2022-12-01T20:22:40.074Z,33.20
2022-12-01T20:25:11.288Z,30.45
2022-12-01T20:27:38.883Z,32.00
2022-12-01T20:30:07.218Z,29.40
2022-12-01T20:32:34.800Z,32.05
2022-12-01T20:35:03.870Z,28.30
2022-12-01T20:37:33.419Z,27.08
2022-12-01T20:40:01.405Z,40.97
2022-12-01T20:42:28.937Z,41.30
2022-12-01T20:47:36.752Z,32.15
2022-12-01T20:50:06.883Z,33.23
2022-12-01T20:52:34.656Z,28.90
2022-12-01T20:55:02.372Z,32.47
2022-12-01T20:57:30.177Z,35.53
2022-12-01T20:59:57.316Z,35.70
2022-12-01T21:02:24.507Z,39.28
2022-12-01T21:04:56.351Z,33.42
2022-12-01T21:07:26.515Z,27.98
2022-12-01T21:09:53.708Z,31.05
2022-12-01T21:12:39.658Z,35.38
2022-12-01T21:15:18.043Z,31.90
2022-12-01T21:17:55.639Z,29.88
2022-12-01T21:20:32.164Z,30.27
2022-12-01T21:23:06.835Z,24.95
2022-12-01T21:25:35.157Z,35.10
2022-12-01T21:28:14.190Z,26.52
2022-12-01T21:30:41.356Z,26.60
2022-12-01T21:33:31.850Z,27.92
2022-12-01T21:36:01.789Z,26.70
2022-12-01T21:38:32.042Z,32.13
2022-12-01T21:41:00.483Z,32.42
2022-12-01T21:43:27.909Z,33.50
2022-12-01T21:46:10.517Z,33.22
2022-12-01T21:48:39.004Z,29.23
2022-12-01T21:51:25.643Z,30.00
2022-12-01T21:56:29.108Z,34.87
2022-12-01T21:59:02.955Z,29.07
2022-12-01T22:01:33.734Z,32.00
2022-12-01T22:04:06.467Z,31.70
2022-12-01T22:06:38.735Z,32.20
2022-12-01T22:09:27.205Z,30.77
2022-12-01T22:12:13.450Z,31.52
2022-12-01T22:14:40.792Z,30.40
2022-12-01T22:17:08.300Z,32.38
2022-12-01T22:19:41.601Z,27.42
2022-12-01T22:22:14.758Z,33.05
2022-12-01T22:24:45.499Z,36.60
2022-12-01T22:27:29.241Z,37.40
2022-12-01T22:30:02.624Z,32.42
2022-12-01T22:33:04.455Z,39.25
2022-12-01T22:35:43.526Z,29.92
2022-12-01T22:38:21.884Z,36.53
2022-12-01T22:40:49.633Z,30.07
2022-12-01T22:43:16.820Z,31.92
2022-12-01T22:45:50.395Z,29.13
2022-12-01T22:48:39.157Z,28.85
2022-12-01T22:51:22.839Z,33.92
2022-12-01T22:53:53.793Z,35.17
2022-12-01T22:56:27.069Z,35.45
2022-12-01T22:58:54.868Z,35.83
2022-12-01T23:01:31.376Z,32.10
2022-12-01T23:04:13.299Z,34.30
2022-12-01T23:06:53.494Z,33.07
2022-12-01T23:09:29.650Z,32.05
2022-12-01T23:14:28.757Z,33.90
2022-12-01T23:17:31.078Z,33.00
2022-12-01T23:20:19.908Z,34.97
2022-12-01T23:22:47.906Z,38.90
2022-12-01T23:25:19.534Z,32.87
2022-12-01T23:27:50.703Z,39.17
2022-12-01T23:30:19.606Z,30.55
2022-12-01T23:32:53.691Z,31.50
2022-12-01T23:35:20.568Z,30.93
2022-12-01T23:37:48.560Z,31.00
2022-12-01T23:40:19.425Z,35.33
2022-12-01T23:42:46.679Z,32.00
2022-12-01T23:45:21.765Z,33.45
2022-12-01T23:47:49.359Z,32.28
2022-12-01T23:50:24.945Z,27.67
2022-12-01T23:52:52.523Z,26.83
2022-12-01T23:55:31.076Z,28.10
2022-12-01T23:57:59.219Z,26.08
